createdAt,value
2022-11-08T00:00:09.904Z,17.60
2022-11-08T00:02:36.889Z,17.50
2022-11-08T00:05:22.556Z,17.60
2022-11-08T00:08:08.040Z,17.60
2022-11-08T00:10:53.488Z,17.50
2022-11-08T00:13:38.989Z,17.50
2022-11-08T00:16:05.982Z,17.50
2022-11-08T00:18:32.773Z,17.60
2022-11-08T00:21:03.591Z,17.60
2022-11-08T00:23:30.555Z,17.50
2022-11-08T00:25:57.540Z,17.60
2022-11-08T00:28:24.342Z,17.60
2022-11-08T00:30:51.136Z,17.60
2022-11-08T00:33:17.967Z,17.60
2022-11-08T00:35:44.805Z,17.60
2022-11-08T00:38:11.635Z,17.60
2022-11-08T00:40:39.179Z,17.60
2022-11-08T00:43:05.986Z,17.60
2022-11-08T00:45:32.756Z,17.70
2022-11-08T00:47:59.604Z,17.60
2022-11-08T00:50:26.402Z,17.60
2022-11-08T00:52:53.198Z,17.60
2022-11-08T00:55:19.956Z,17.60
2022-11-08T00:57:59.097Z,17.60
2022-11-08T01:00:27.508Z,17.60
2022-11-08T01:03:14.426Z,17.50
2022-11-08T01:05:41.584Z,17.50
2022-11-08T01:08:10.150Z,17.60
2022-11-08T01:10:37.502Z,17.60
2022-11-08T01:13:04.316Z,17.60
2022-11-08T01:15:36.482Z,17.50
2022-11-08T01:18:07.644Z,17.60
2022-11-08T01:20:37.794Z,17.60
2022-11-08T01:23:04.589Z,17.60
2022-11-08T01:25:31.439Z,17.60
2022-11-08T01:27:58.236Z,17.70
2022-11-08T01:30:25.097Z,17.60
2022-11-08T01:32:51.912Z,17.60
2022-11-08T01:35:18.700Z,17.60
2022-11-08T01:37:45.451Z,17.70
2022-11-08T01:40:12.572Z,17.70
2022-11-08T01:42:39.394Z,17.60
2022-11-08T01:45:11.844Z,17.60
2022-11-08T01:47:38.688Z,17.60
2022-11-08T01:50:12.694Z,17.60
2022-11-08T01:52:47.497Z,17.70
2022-11-08T01:55:17.390Z,17.70
2022-11-08T01:57:47.359Z,17.70
2022-11-08T02:00:14.894Z,17.60
2022-11-08T02:02:44.338Z,17.60
2022-11-08T02:05:26.124Z,17.70
2022-11-08T02:07:58.772Z,17.70
2022-11-08T02:10:34.533Z,17.70
2022-11-08T02:13:04.964Z,17.60
2022-11-08T02:15:32.833Z,17.60
2022-11-08T02:17:59.975Z,17.70
2022-11-08T02:20:27.248Z,17.80
2022-11-08T02:23:01.976Z,17.70
2022-11-08T02:25:28.828Z,17.70
2022-11-08T02:27:55.586Z,17.60
2022-11-08T02:30:22.419Z,17.60
2022-11-08T02:32:49.256Z,17.50
2022-11-08T02:35:20.657Z,17.50
2022-11-08T02:37:47.956Z,17.60
2022-11-08T02:40:14.841Z,17.60
2022-11-08T02:42:41.647Z,17.70
2022-11-08T02:45:09.625Z,17.70
2022-11-08T02:47:36.759Z,17.60
2022-11-08T02:50:03.807Z,17.60
2022-11-08T02:52:30.675Z,17.60
2022-11-08T02:54:57.440Z,17.60
2022-11-08T02:57:24.283Z,17.70
2022-11-08T02:59:51.212Z,17.60
2022-11-08T03:02:18.192Z,17.60
2022-11-08T03:04:45.041Z,17.60
2022-11-08T03:07:11.838Z,17.70
2022-11-08T03:09:38.685Z,17.60
2022-11-08T03:12:05.703Z,17.70
2022-11-08T03:14:32.508Z,17.60
2022-11-08T03:16:59.389Z,17.60
2022-11-08T03:19:26.205Z,17.50
2022-11-08T03:21:52.976Z,17.60
2022-11-08T03:24:19.817Z,17.60
2022-11-08T03:26:46.625Z,17.70
2022-11-08T03:29:13.436Z,17.60
2022-11-08T03:31:40.224Z,17.60
2022-11-08T03:34:07.095Z,17.70
2022-11-08T03:36:33.968Z,17.70
2022-11-08T03:39:00.771Z,17.60
2022-11-08T03:41:27.785Z,17.80
2022-11-08T03:43:54.680Z,17.60
2022-11-08T03:46:21.529Z,17.70
2022-11-08T03:48:48.318Z,17.70
2022-11-08T03:51:15.177Z,17.60
2022-11-08T03:53:41.987Z,17.70
2022-11-08T03:56:08.932Z,17.60
2022-11-08T03:58:36.005Z,17.60
2022-11-08T04:01:06.612Z,17.70
2022-11-08T04:03:33.308Z,17.70
2022-11-08T04:06:01.234Z,17.60
2022-11-08T04:08:29.163Z,17.70
2022-11-08T04:10:57.241Z,17.70
2022-11-08T04:13:42.598Z,17.70
2022-11-08T04:16:11.796Z,17.70
2022-11-08T04:19:00.432Z,17.70
2022-11-08T04:21:27.226Z,17.60
2022-11-08T04:23:54.023Z,17.70
2022-11-08T04:26:22.238Z,17.60
2022-11-08T04:28:49.071Z,17.60
2022-11-08T04:31:19.005Z,17.70
2022-11-08T04:33:46.268Z,17.70
2022-11-08T04:36:15.350Z,17.60
2022-11-08T04:38:42.537Z,17.60
2022-11-08T04:41:14.364Z,17.70
2022-11-08T04:43:41.812Z,17.60
2022-11-08T04:46:12.409Z,17.60
2022-11-08T04:48:39.880Z,17.60
2022-11-08T04:51:12.005Z,17.60
2022-11-08T04:53:38.852Z,17.70
2022-11-08T04:56:11.245Z,17.60
2022-11-08T04:58:40.777Z,17.70
2022-11-08T05:01:09.283Z,17.60
2022-11-08T05:03:36.407Z,17.60
2022-11-08T05:06:10.074Z,17.60
2022-11-08T05:08:37.382Z,17.60
2022-11-08T05:11:15.246Z,17.70
2022-11-08T05:13:42.354Z,17.70
2022-11-08T05:16:13.372Z,17.60
2022-11-08T05:18:41.964Z,17.60
2022-11-08T05:21:40.191Z,17.70
2022-11-08T05:24:09.671Z,17.70
2022-11-08T05:26:38.138Z,17.60
2022-11-08T05:29:05.752Z,17.60
2022-11-08T05:31:32.692Z,17.60
2022-11-08T05:34:00.741Z,17.50
2022-11-08T05:36:28.251Z,17.60
2022-11-08T05:38:55.555Z,17.60
2022-11-08T05:41:24.262Z,17.60
2022-11-08T05:43:53.468Z,17.60
2022-11-08T05:46:21.576Z,17.60
2022-11-08T05:48:49.007Z,17.60
2022-11-08T05:51:17.830Z,17.60
2022-11-08T05:53:46.873Z,17.70
2022-11-08T05:56:13.746Z,17.70
2022-11-08T05:58:40.567Z,17.60
2022-11-08T06:01:15.968Z,17.70
2022-11-08T06:03:43.204Z,17.70
2022-11-08T06:06:15.567Z,17.60
2022-11-08T06:08:47.477Z,17.60
2022-11-08T06:11:27.987Z,17.60
2022-11-08T06:13:55.695Z,17.70
2022-11-08T06:16:23.876Z,17.70
2022-11-08T06:18:50.938Z,17.80
2022-11-08T06:21:19.643Z,17.60
2022-11-08T06:23:46.433Z,17.80
2022-11-08T06:26:13.674Z,17.80
2022-11-08T06:28:40.756Z,17.70
2022-11-08T06:31:08.100Z,17.70
2022-11-08T06:33:35.115Z,17.80
2022-11-08T06:36:02.294Z,17.70
2022-11-08T06:38:29.773Z,17.90
2022-11-08T06:41:00.343Z,17.90
2022-11-08T06:43:27.575Z,17.80
2022-11-08T06:45:54.743Z,17.90
2022-11-08T06:48:21.543Z,17.90
2022-11-08T06:50:48.501Z,17.90
2022-11-08T06:53:15.819Z,17.90
2022-11-08T06:55:42.840Z,17.80
2022-11-08T06:58:10.998Z,17.90
2022-11-08T07:00:37.881Z,17.90
2022-11-08T07:03:04.877Z,18.00
2022-11-08T07:05:33.400Z,17.90
2022-11-08T07:08:01.081Z,18.00
2022-11-08T07:10:30.771Z,18.00
2022-11-08T07:13:06.261Z,18.00
2022-11-08T07:15:34.346Z,18.10
2022-11-08T07:18:06.418Z,18.00
2022-11-08T07:20:33.502Z,18.00
2022-11-08T07:23:00.527Z,18.10
2022-11-08T07:25:29.210Z,18.20
2022-11-08T07:27:57.524Z,18.20
2022-11-08T07:30:25.314Z,18.20
2022-11-08T07:32:52.188Z,18.20
2022-11-08T07:35:19.119Z,18.40
2022-11-08T07:37:46.026Z,18.30
2022-11-08T07:40:13.833Z,18.30
2022-11-08T07:43:09.571Z,18.30
2022-11-08T07:45:28.512Z,18.40
2022-11-08T07:48:11.171Z,18.40
2022-11-08T07:50:40.058Z,18.40
2022-11-08T07:53:08.177Z,18.30
2022-11-08T07:55:39.739Z,18.30
2022-11-08T07:58:07.504Z,18.30
2022-11-08T08:00:36.806Z,18.30
2022-11-08T08:03:05.443Z,18.30
2022-11-08T08:05:35.855Z,18.30
2022-11-08T08:08:03.840Z,18.30
2022-11-08T08:10:31.581Z,18.40
2022-11-08T08:12:58.674Z,18.40
2022-11-08T08:15:25.929Z,18.40
2022-11-08T08:17:53.033Z,18.50
2022-11-08T08:20:19.800Z,18.50
2022-11-08T08:22:51.834Z,18.50
2022-11-08T08:25:19.176Z,18.60
2022-11-08T08:27:50.358Z,18.60
2022-11-08T08:30:17.907Z,18.80
2022-11-08T08:32:47.945Z,18.80
2022-11-08T08:35:20.356Z,18.90
2022-11-08T08:37:47.164Z,18.90
2022-11-08T08:40:13.972Z,18.90
2022-11-08T08:42:40.774Z,18.90
2022-11-08T08:45:13.570Z,18.90
2022-11-08T08:47:41.589Z,18.80
2022-11-08T08:50:08.788Z,18.70
2022-11-08T08:52:35.591Z,18.70
2022-11-08T08:55:02.482Z,18.60
2022-11-08T08:57:29.381Z,18.60
2022-11-08T09:02:44.777Z,18.60
2022-11-08T09:05:13.250Z,18.60
2022-11-08T09:07:40.959Z,18.50
2022-11-08T09:10:10.320Z,18.40
2022-11-08T09:12:38.231Z,18.50
2022-11-08T09:15:05.968Z,18.50
2022-11-08T09:17:32.886Z,18.60
2022-11-08T09:20:00.123Z,18.60
2022-11-08T09:22:26.949Z,18.50
2022-11-08T09:24:53.910Z,18.60
2022-11-08T09:27:20.673Z,18.60
2022-11-08T09:29:47.426Z,18.50
2022-11-08T09:32:14.233Z,18.60
2022-11-08T09:34:41.012Z,18.70
2022-11-08T09:37:07.796Z,18.80
2022-11-08T09:39:34.605Z,18.80
2022-11-08T09:42:20.409Z,18.90
2022-11-08T09:45:35.055Z,18.90
2022-11-08T09:48:06.318Z,19.00
2022-11-08T09:50:41.530Z,18.90
2022-11-08T09:53:40.518Z,18.80
2022-11-08T09:56:30.705Z,18.90
2022-11-08T09:59:34.182Z,18.80
2022-11-08T10:02:01.317Z,18.80
2022-11-08T10:04:32.068Z,18.80
2022-11-08T10:07:30.843Z,18.80
2022-11-08T10:10:08.805Z,18.80
2022-11-08T10:12:51.599Z,18.80
2022-11-08T10:15:25.559Z,18.90
2022-11-08T10:18:28.054Z,18.80
2022-11-08T10:21:06.534Z,18.90
2022-11-08T10:24:03.785Z,18.90
2022-11-08T10:26:52.769Z,18.90
2022-11-08T10:29:27.238Z,18.90
2022-11-08T10:32:02.111Z,18.90
2022-11-08T10:34:46.766Z,19.00
2022-11-08T10:37:15.688Z,19.00
2022-11-08T10:40:00.035Z,19.00
2022-11-08T10:42:47.214Z,19.00
2022-11-08T10:45:14.089Z,19.00
2022-11-08T10:47:41.373Z,19.00
2022-11-08T10:50:21.566Z,19.00
2022-11-08T10:53:00.302Z,19.00
2022-11-08T10:55:38.646Z,19.00
2022-11-08T10:58:29.885Z,19.00
2022-11-08T11:01:06.469Z,19.00
2022-11-08T11:03:33.778Z,19.00
2022-11-08T11:06:20.125Z,19.20
2022-11-08T11:08:54.650Z,19.10
2022-11-08T11:11:27.681Z,19.10
2022-11-08T11:14:23.851Z,19.20
2022-11-08T11:17:01.314Z,19.10
2022-11-08T11:19:29.316Z,19.10
2022-11-08T11:22:03.336Z,19.10
2022-11-08T11:24:31.407Z,19.10
2022-11-08T11:26:58.211Z,19.10
2022-11-08T11:29:29.526Z,19.10
2022-11-08T11:31:56.569Z,19.00
2022-11-08T11:34:43.891Z,19.00
2022-11-08T11:37:13.908Z,19.00
2022-11-08T11:40:09.136Z,19.10
2022-11-08T11:42:51.147Z,19.00
2022-11-08T11:45:36.422Z,19.10
2022-11-08T11:48:11.480Z,19.10
2022-11-08T11:50:44.397Z,19.10
2022-11-08T11:53:26.533Z,19.10
2022-11-08T11:56:21.317Z,19.10
2022-11-08T11:59:02.168Z,19.20
2022-11-08T12:01:47.895Z,19.10
2022-11-08T12:04:27.100Z,19.10
2022-11-08T12:07:30.390Z,19.20
2022-11-08T12:10:09.682Z,19.10
2022-11-08T12:12:50.712Z,19.00
2022-11-08T12:15:51.570Z,19.00
2022-11-08T12:18:46.163Z,19.10
2022-11-08T12:21:22.048Z,19.00
2022-11-08T12:24:11.997Z,18.90
2022-11-08T12:27:07.795Z,18.90
2022-11-08T12:29:58.396Z,19.00
2022-11-08T12:32:28.045Z,18.80
2022-11-08T12:35:08.369Z,18.90
2022-11-08T12:38:19.403Z,18.80
2022-11-08T12:40:58.020Z,18.80
2022-11-08T12:43:42.302Z,18.80
2022-11-08T12:46:19.034Z,18.80
2022-11-08T12:49:00.822Z,18.80
2022-11-08T12:51:56.960Z,18.80
2022-11-08T12:54:35.101Z,18.70
2022-11-08T12:57:05.918Z,18.70
2022-11-08T12:59:58.083Z,18.70
2022-11-08T13:02:30.304Z,18.70
2022-11-08T13:05:06.357Z,18.60
2022-11-08T13:08:18.133Z,18.60
2022-11-08T13:11:04.242Z,18.60
2022-11-08T13:13:37.879Z,18.60
2022-11-08T13:16:09.125Z,18.70
2022-11-08T13:18:51.006Z,18.60
2022-11-08T13:21:39.046Z,18.60
2022-11-08T13:24:14.218Z,18.60
2022-11-08T13:26:55.839Z,18.60
2022-11-08T13:29:27.495Z,18.50
2022-11-08T13:32:07.852Z,18.50
2022-11-08T13:34:40.746Z,18.50
2022-11-08T13:37:46.049Z,18.50
2022-11-08T13:40:28.579Z,18.50
2022-11-08T13:43:14.753Z,18.50
2022-11-08T13:45:42.589Z,18.50
2022-11-08T13:48:25.118Z,18.50
2022-11-08T13:50:52.253Z,18.50
2022-11-08T13:53:19.013Z,18.50
2022-11-08T13:55:45.935Z,18.50
2022-11-08T13:58:44.298Z,18.50
2022-11-08T14:01:23.439Z,18.60
2022-11-08T14:03:50.343Z,18.40
2022-11-08T14:06:17.768Z,18.40
2022-11-08T14:08:55.412Z,18.30
2022-11-08T14:11:44.744Z,18.20
2022-11-08T14:14:35.065Z,18.10
2022-11-08T14:17:34.014Z,18.10
2022-11-08T14:20:41.068Z,18.00
2022-11-08T14:23:20.209Z,17.80
2022-11-08T14:26:03.230Z,17.60
2022-11-08T14:28:36.411Z,17.50
2022-11-08T14:31:23.147Z,17.30
2022-11-08T14:33:52.643Z,17.20
2022-11-08T14:36:21.852Z,17.10
2022-11-08T14:39:05.878Z,17.10
2022-11-08T14:41:34.059Z,17.10
2022-11-08T14:44:02.576Z,17.00
2022-11-08T14:46:39.237Z,16.90
2022-11-08T14:49:17.893Z,17.00
2022-11-08T14:51:45.723Z,17.20
2022-11-08T14:54:25.151Z,17.30
2022-11-08T14:56:52.197Z,17.40
2022-11-08T14:59:19.451Z,17.40
2022-11-08T15:01:49.218Z,17.50
2022-11-08T15:04:23.730Z,17.50
2022-11-08T15:06:56.963Z,17.40
2022-11-08T15:09:30.616Z,17.40
2022-11-08T15:12:01.337Z,17.30
2022-11-08T15:14:35.311Z,17.30
2022-11-08T15:17:03.883Z,17.20
2022-11-08T15:19:44.953Z,17.10
2022-11-08T15:22:38.181Z,17.20
2022-11-08T15:25:23.684Z,17.10
2022-11-08T15:27:58.528Z,17.10
2022-11-08T15:30:31.106Z,17.10
2022-11-08T15:32:58.109Z,17.10
2022-11-08T15:35:33.424Z,17.00
2022-11-08T15:38:03.149Z,17.10
2022-11-08T15:40:32.047Z,17.10
2022-11-08T15:43:00.252Z,17.00
2022-11-08T15:45:29.001Z,17.10
2022-11-08T15:48:21.925Z,17.00
2022-11-08T15:50:49.495Z,17.00
2022-11-08T15:53:16.922Z,17.00
2022-11-08T15:55:52.076Z,17.00
2022-11-08T15:58:28.188Z,17.00
2022-11-08T16:00:56.710Z,17.10
2022-11-08T16:03:24.407Z,17.10
2022-11-08T16:05:51.289Z,17.10
2022-11-08T16:08:20.942Z,17.10
2022-11-08T16:10:50.896Z,17.10
2022-11-08T16:13:22.015Z,17.20
2022-11-08T16:15:48.951Z,17.10
2022-11-08T16:18:16.352Z,17.10
2022-11-08T16:20:43.457Z,17.00
2022-11-08T16:23:13.192Z,16.70
2022-11-08T16:25:43.585Z,16.40
2022-11-08T16:28:34.536Z,16.00
2022-11-08T16:31:02.369Z,15.70
2022-11-08T16:33:31.544Z,15.40
2022-11-08T16:36:05.974Z,15.30
2022-11-08T16:38:37.570Z,15.10
2022-11-08T16:41:05.638Z,15.10
2022-11-08T16:43:32.936Z,14.80
2022-11-08T16:46:06.672Z,14.70
2022-11-08T16:48:36.507Z,14.80
2022-11-08T16:51:06.092Z,15.00
2022-11-08T16:53:38.710Z,15.10
2022-11-08T16:56:05.561Z,15.30
2022-11-08T16:58:32.491Z,15.40
2022-11-08T17:00:59.504Z,15.70
2022-11-08T17:03:29.738Z,15.70
2022-11-08T17:06:06.067Z,16.00
2022-11-08T17:08:46.000Z,16.00
2022-11-08T17:11:31.634Z,16.20
2022-11-08T17:14:21.875Z,16.20
2022-11-08T17:16:48.708Z,16.30
2022-11-08T17:19:15.545Z,16.30
2022-11-08T17:21:45.113Z,16.40
2022-11-08T17:24:21.580Z,16.50
2022-11-08T17:26:50.057Z,16.60
2022-11-08T17:29:16.937Z,16.50
2022-11-08T17:31:43.810Z,16.60
2022-11-08T17:34:10.946Z,16.60
2022-11-08T17:36:37.853Z,16.70
2022-11-08T17:39:06.173Z,16.60
2022-11-08T17:41:33.208Z,16.70
2022-11-08T17:44:00.067Z,16.70
2022-11-08T17:46:26.946Z,16.80
2022-11-08T17:48:53.757Z,16.70
2022-11-08T17:51:20.605Z,16.80
2022-11-08T17:53:47.744Z,16.80
2022-11-08T17:56:14.633Z,16.80
2022-11-08T17:58:41.818Z,16.80
2022-11-08T18:01:09.014Z,16.90
2022-11-08T18:03:36.077Z,16.90
2022-11-08T18:06:11.336Z,16.90
2022-11-08T18:08:38.402Z,16.90
2022-11-08T18:11:05.518Z,17.00
2022-11-08T18:13:34.449Z,17.00
2022-11-08T18:16:27.570Z,16.90
2022-11-08T18:18:59.004Z,17.00
2022-11-08T18:21:25.965Z,17.00
2022-11-08T18:23:52.955Z,17.00
2022-11-08T18:26:19.923Z,17.00
2022-11-08T18:28:47.047Z,17.00
2022-11-08T18:31:17.200Z,16.90
2022-11-08T18:33:44.706Z,17.00
2022-11-08T18:36:37.749Z,17.00
2022-11-08T18:39:12.069Z,17.00
2022-11-08T18:41:40.891Z,17.10
2022-11-08T18:44:07.902Z,17.10
2022-11-08T18:46:41.872Z,17.00
2022-11-08T18:49:10.856Z,17.10
2022-11-08T18:51:37.713Z,17.10
2022-11-08T18:54:04.632Z,17.10
2022-11-08T18:56:31.537Z,17.20
2022-11-08T18:58:58.448Z,17.10
2022-11-08T19:01:25.332Z,17.10
2022-11-08T19:03:52.209Z,17.20
2022-11-08T19:06:19.641Z,17.10
2022-11-08T19:08:46.718Z,17.20
2022-11-08T19:11:14.502Z,17.10
2022-11-08T19:13:41.925Z,17.10
2022-11-08T19:16:15.339Z,17.20
2022-11-08T19:18:43.304Z,17.20
2022-11-08T19:21:19.037Z,17.20
2022-11-08T19:23:46.593Z,17.20
2022-11-08T19:26:23.343Z,17.20
2022-11-08T19:28:50.728Z,17.20
2022-11-08T19:31:19.761Z,17.20
2022-11-08T19:33:47.689Z,17.10
2022-11-08T19:36:20.198Z,17.20
2022-11-08T19:38:47.025Z,17.20
2022-11-08T19:41:19.882Z,17.20
2022-11-08T19:43:47.453Z,17.10
2022-11-08T19:46:23.583Z,17.30
2022-11-08T19:48:51.720Z,17.20
2022-11-08T19:51:33.249Z,17.30
2022-11-08T19:54:07.333Z,17.30
2022-11-08T19:57:03.300Z,17.30
2022-11-08T19:59:22.418Z,17.20
2022-11-08T20:01:49.425Z,17.30
2022-11-08T20:04:18.447Z,17.20
2022-11-08T20:06:46.219Z,17.30
2022-11-08T20:09:13.437Z,17.30
2022-11-08T20:11:41.707Z,17.30
2022-11-08T20:14:10.809Z,17.30
2022-11-08T20:16:41.530Z,17.20
2022-11-08T20:19:16.758Z,17.30
2022-11-08T20:21:46.261Z,17.30
2022-11-08T20:24:16.414Z,17.30
2022-11-08T20:26:43.903Z,17.30
2022-11-08T20:29:11.889Z,17.30
2022-11-08T20:31:39.095Z,17.20
2022-11-08T20:34:09.798Z,17.30
2022-11-08T20:36:47.590Z,17.30
2022-11-08T20:39:15.145Z,17.40
2022-11-08T20:41:43.774Z,17.20
2022-11-08T20:44:11.106Z,17.30
